sensor_id;sensor_type;location;lat;lon;timestamp;P1;durP1;ratioP1;P2;durP2;ratioP2
36291;SDS011;22327;51.208;6.418;2023-03-09T00:01:42;137.15;;;29.98;;
36291;SDS011;22327;51.208;6.418;2023-03-09T00:04:17;117.97;;;29.30;;
36291;SDS011;22327;51.208;6.418;2023-03-09T00:06:43;99.15;;;28.35;;
36291;SDS011;22327;51.208;6.418;2023-03-09T00:09:09;109.03;;;29.48;;
36291;SDS011;22327;51.208;6.418;2023-03-09T00:11:38;130.55;;;31.65;;
36291;SDS011;22327;51.208;6.418;2023-03-09T00:14:05;131.13;;;30.50;;
36291;SDS011;22327;51.208;6.418;2023-03-09T00:16:31;150.27;;;33.17;;
36291;SDS011;22327;51.208;6.418;2023-03-09T00:18:57;129.13;;;28.20;;
36291;SDS011;22327;51.208;6.418;2023-03-09T00:21:23;159.35;;;33.20;;
36291;SDS011;22327;51.208;6.418;2023-03-09T00:24:00;148.18;;;32.55;;
36291;SDS011;22327;51.208;6.418;2023-03-09T00:26:32;135.93;;;31.17;;
36291;SDS011;22327;51.208;6.418;2023-03-09T00:29:03;87.88;;;21.77;;
36291;SDS011;22327;51.208;6.418;2023-03-09T00:31:30;122.18;;;30.90;;
36291;SDS011;22327;51.208;6.418;2023-03-09T00:33:56;124.47;;;30.98;;
36291;SDS011;22327;51.208;6.418;2023-03-09T00:36:21;164.07;;;33.05;;
36291;SDS011;22327;51.208;6.418;2023-03-09T00:38:53;125.43;;;29.48;;
36291;SDS011;22327;51.208;6.418;2023-03-09T00:41:20;145.77;;;30.45;;
36291;SDS011;22327;51.208;6.418;2023-03-09T00:43:47;147.85;;;31.70;;
36291;SDS011;22327;51.208;6.418;2023-03-09T00:46:13;142.50;;;30.00;;
36291;SDS011;22327;51.208;6.418;2023-03-09T00:48:40;161.63;;;32.03;;
36291;SDS011;22327;51.208;6.418;2023-03-09T00:51:06;128.73;;;29.70;;
36291;SDS011;22327;51.208;6.418;2023-03-09T00:53:32;114.15;;;26.52;;
36291;SDS011;22327;51.208;6.418;2023-03-09T00:56:01;115.38;;;27.48;;
36291;SDS011;22327;51.208;6.418;2023-03-09T00:58:28;119.43;;;27.95;;
36291;SDS011;22327;51.208;6.418;2023-03-09T01:00:53;116.13;;;25.27;;
36291;SDS011;22327;51.208;6.418;2023-03-09T01:03:19;108.00;;;25.40;;
36291;SDS011;22327;51.208;6.418;2023-03-09T01:05:44;97.60;;;26.50;;
36291;SDS011;22327;51.208;6.418;2023-03-09T01:08:10;138.35;;;27.60;;
36291;SDS011;22327;51.208;6.418;2023-03-09T01:10:38;104.18;;;26.00;;
36291;SDS011;22327;51.208;6.418;2023-03-09T01:13:04;119.53;;;26.73;;
36291;SDS011;22327;51.208;6.418;2023-03-09T01:15:30;117.93;;;25.73;;
36291;SDS011;22327;51.208;6.418;2023-03-09T01:17:55;114.97;;;27.17;;
36291;SDS011;22327;51.208;6.418;2023-03-09T01:20:21;107.70;;;24.40;;
36291;SDS011;22327;51.208;6.418;2023-03-09T01:22:47;114.90;;;25.63;;
36291;SDS011;22327;51.208;6.418;2023-03-09T01:25:13;102.95;;;23.42;;
36291;SDS011;22327;51.208;6.418;2023-03-09T01:27:38;103.88;;;23.27;;
36291;SDS011;22327;51.208;6.418;2023-03-09T01:30:04;94.07;;;23.50;;
36291;SDS011;22327;51.208;6.418;2023-03-09T01:32:30;101.90;;;23.80;;
36291;SDS011;22327;51.208;6.418;2023-03-09T01:34:56;104.60;;;24.08;;
36291;SDS011;22327;51.208;6.418;2023-03-09T01:37:22;100.65;;;25.23;;
36291;SDS011;22327;51.208;6.418;2023-03-09T01:39:47;103.70;;;28.17;;
36291;SDS011;22327;51.208;6.418;2023-03-09T01:42:13;107.68;;;27.88;;
36291;SDS011;22327;51.208;6.418;2023-03-09T01:44:40;113.90;;;27.75;;
36291;SDS011;22327;51.208;6.418;2023-03-09T01:47:05;110.80;;;27.63;;
36291;SDS011;22327;51.208;6.418;2023-03-09T01:49:40;122.97;;;27.75;;
36291;SDS011;22327;51.208;6.418;2023-03-09T01:52:24;112.88;;;26.50;;
36291;SDS011;22327;51.208;6.418;2023-03-09T01:55:01;121.07;;;27.23;;
36291;SDS011;22327;51.208;6.418;2023-03-09T02:00:05;122.20;;;28.38;;
36291;SDS011;22327;51.208;6.418;2023-03-09T02:02:37;125.43;;;27.77;;
36291;SDS011;22327;51.208;6.418;2023-03-09T02:05:06;124.72;;;29.70;;
36291;SDS011;22327;51.208;6.418;2023-03-09T02:07:36;110.50;;;27.35;;
36291;SDS011;22327;51.208;6.418;2023-03-09T02:10:13;146.05;;;30.00;;
36291;SDS011;22327;51.208;6.418;2023-03-09T02:12:56;133.38;;;28.92;;
36291;SDS011;22327;51.208;6.418;2023-03-09T02:15:23;149.98;;;32.35;;
36291;SDS011;22327;51.208;6.418;2023-03-09T02:17:49;157.27;;;31.63;;
36291;SDS011;22327;51.208;6.418;2023-03-09T02:20:21;160.25;;;32.50;;
36291;SDS011;22327;51.208;6.418;2023-03-09T02:22:49;159.48;;;33.15;;
36291;SDS011;22327;51.208;6.418;2023-03-09T02:25:35;161.82;;;33.15;;
36291;SDS011;22327;51.208;6.418;2023-03-09T02:28:05;153.00;;;31.88;;
36291;SDS011;22327;51.208;6.418;2023-03-09T02:30:33;148.25;;;31.98;;
36291;SDS011;22327;51.208;6.418;2023-03-09T02:35:37;159.43;;;32.20;;
36291;SDS011;22327;51.208;6.418;2023-03-09T02:38:03;154.10;;;32.78;;
36291;SDS011;22327;51.208;6.418;2023-03-09T02:40:34;170.32;;;33.25;;
36291;SDS011;22327;51.208;6.418;2023-03-09T02:43:02;173.00;;;35.25;;
36291;SDS011;22327;51.208;6.418;2023-03-09T02:45:29;173.57;;;34.08;;
36291;SDS011;22327;51.208;6.418;2023-03-09T02:47:56;152.02;;;32.97;;
36291;SDS011;22327;51.208;6.418;2023-03-09T02:50:23;161.60;;;33.03;;
36291;SDS011;22327;51.208;6.418;2023-03-09T02:52:49;162.70;;;33.90;;
36291;SDS011;22327;51.208;6.418;2023-03-09T02:55:15;152.02;;;33.42;;
36291;SDS011;22327;51.208;6.418;2023-03-09T02:57:41;162.30;;;32.83;;
36291;SDS011;22327;51.208;6.418;2023-03-09T03:00:07;189.25;;;33.95;;
36291;SDS011;22327;51.208;6.418;2023-03-09T03:02:34;152.70;;;33.60;;
36291;SDS011;22327;51.208;6.418;2023-03-09T03:05:00;143.70;;;32.35;;
36291;SDS011;22327;51.208;6.418;2023-03-09T03:07:26;158.65;;;31.75;;
36291;SDS011;22327;51.208;6.418;2023-03-09T03:09:52;146.10;;;32.20;;
36291;SDS011;22327;51.208;6.418;2023-03-09T03:12:17;152.07;;;31.65;;
36291;SDS011;22327;51.208;6.418;2023-03-09T03:14:43;167.18;;;34.33;;
36291;SDS011;22327;51.208;6.418;2023-03-09T03:17:09;155.35;;;32.53;;
36291;SDS011;22327;51.208;6.418;2023-03-09T03:19:34;157.05;;;31.95;;
36291;SDS011;22327;51.208;6.418;2023-03-09T03:22:00;179.70;;;33.78;;
36291;SDS011;22327;51.208;6.418;2023-03-09T03:24:25;157.68;;;31.50;;
36291;SDS011;22327;51.208;6.418;2023-03-09T03:26:51;151.15;;;31.30;;
36291;SDS011;22327;51.208;6.418;2023-03-09T03:29:17;158.75;;;31.63;;
36291;SDS011;22327;51.208;6.418;2023-03-09T03:31:42;175.52;;;32.28;;
36291;SDS011;22327;51.208;6.418;2023-03-09T03:34:08;157.82;;;31.35;;
36291;SDS011;22327;51.208;6.418;2023-03-09T03:36:33;142.45;;;30.73;;
36291;SDS011;22327;51.208;6.418;2023-03-09T03:38:59;177.38;;;32.60;;
36291;SDS011;22327;51.208;6.418;2023-03-09T03:41:24;160.18;;;29.95;;
36291;SDS011;22327;51.208;6.418;2023-03-09T03:43:50;154.25;;;31.08;;
36291;SDS011;22327;51.208;6.418;2023-03-09T03:49:34;161.52;;;31.50;;
36291;SDS011;22327;51.208;6.418;2023-03-09T03:51:59;190.55;;;34.22;;
36291;SDS011;22327;51.208;6.418;2023-03-09T03:54:25;161.63;;;32.03;;
36291;SDS011;22327;51.208;6.418;2023-03-09T03:56:51;142.63;;;30.25;;
36291;SDS011;22327;51.208;6.418;2023-03-09T03:59:17;193.85;;;33.45;;
36291;SDS011;22327;51.208;6.418;2023-03-09T04:01:42;158.45;;;29.63;;
36291;SDS011;22327;51.208;6.418;2023-03-09T04:04:08;149.57;;;30.15;;
36291;SDS011;22327;51.208;6.418;2023-03-09T04:06:34;153.63;;;31.02;;
36291;SDS011;22327;51.208;6.418;2023-03-09T04:09:00;173.95;;;33.67;;
36291;SDS011;22327;51.208;6.418;2023-03-09T04:11:26;141.85;;;31.98;;
36291;SDS011;22327;51.208;6.418;2023-03-09T04:13:51;203.57;;;34.13;;
36291;SDS011;22327;51.208;6.418;2023-03-09T04:16:17;155.85;;;29.40;;
36291;SDS011;22327;51.208;6.418;2023-03-09T04:18:43;151.07;;;32.30;;
36291;SDS011;22327;51.208;6.418;2023-03-09T04:21:08;166.85;;;32.88;;
36291;SDS011;22327;51.208;6.418;2023-03-09T04:23:34;147.07;;;30.60;;
36291;SDS011;22327;51.208;6.418;2023-03-09T04:26:01;164.98;;;32.80;;
36291;SDS011;22327;51.208;6.418;2023-03-09T04:28:28;161.77;;;30.75;;
36291;SDS011;22327;51.208;6.418;2023-03-09T04:30:54;181.27;;;32.15;;
36291;SDS011;22327;51.208;6.418;2023-03-09T04:33:20;199.43;;;33.55;;
36291;SDS011;22327;51.208;6.418;2023-03-09T04:35:46;146.15;;;30.13;;
36291;SDS011;22327;51.208;6.418;2023-03-09T04:38:12;154.43;;;28.90;;
36291;SDS011;22327;51.208;6.418;2023-03-09T04:40:38;158.80;;;28.77;;
36291;SDS011;22327;51.208;6.418;2023-03-09T04:43:03;165.13;;;29.42;;
36291;SDS011;22327;51.208;6.418;2023-03-09T04:45:29;136.93;;;27.67;;
36291;SDS011;22327;51.208;6.418;2023-03-09T04:47:55;124.07;;;27.85;;
36291;SDS011;22327;51.208;6.418;2023-03-09T04:50:21;131.13;;;28.60;;
36291;SDS011;22327;51.208;6.418;2023-03-09T04:52:46;134.85;;;30.08;;
36291;SDS011;22327;51.208;6.418;2023-03-09T04:55:12;126.28;;;28.63;;
36291;SDS011;22327;51.208;6.418;2023-03-09T04:57:37;118.90;;;26.52;;
36291;SDS011;22327;51.208;6.418;2023-03-09T05:00:03;122.50;;;27.10;;
36291;SDS011;22327;51.208;6.418;2023-03-09T05:02:31;161.30;;;28.48;;
36291;SDS011;22327;51.208;6.418;2023-03-09T05:04:57;135.18;;;27.45;;
36291;SDS011;22327;51.208;6.418;2023-03-09T05:07:22;138.07;;;27.75;;
36291;SDS011;22327;51.208;6.418;2023-03-09T05:09:48;109.13;;;26.58;;
36291;SDS011;22327;51.208;6.418;2023-03-09T05:12:14;143.85;;;27.40;;
36291;SDS011;22327;51.208;6.418;2023-03-09T05:14:39;109.90;;;25.08;;
36291;SDS011;22327;51.208;6.418;2023-03-09T05:17:05;129.40;;;28.80;;
36291;SDS011;22327;51.208;6.418;2023-03-09T05:19:31;131.20;;;26.13;;
36291;SDS011;22327;51.208;6.418;2023-03-09T05:21:58;113.55;;;27.08;;
36291;SDS011;22327;51.208;6.418;2023-03-09T05:24:24;126.18;;;27.48;;
36291;SDS011;22327;51.208;6.418;2023-03-09T05:26:49;126.38;;;28.48;;
36291;SDS011;22327;51.208;6.418;2023-03-09T05:29:15;137.20;;;26.50;;
36291;SDS011;22327;51.208;6.418;2023-03-09T05:31:40;119.80;;;25.75;;
36291;SDS011;22327;51.208;6.418;2023-03-09T05:34:06;142.15;;;28.05;;
36291;SDS011;22327;51.208;6.418;2023-03-09T05:36:31;124.15;;;27.13;;
36291;SDS011;22327;51.208;6.418;2023-03-09T05:38:57;118.10;;;26.27;;
36291;SDS011;22327;51.208;6.418;2023-03-09T05:41:23;121.93;;;25.85;;
36291;SDS011;22327;51.208;6.418;2023-03-09T05:43:48;144.98;;;29.33;;
36291;SDS011;22327;51.208;6.418;2023-03-09T05:46:15;151.25;;;27.52;;
36291;SDS011;22327;51.208;6.418;2023-03-09T05:48:41;136.30;;;25.67;;
36291;SDS011;22327;51.208;6.418;2023-03-09T05:51:07;148.50;;;26.73;;
36291;SDS011;22327;51.208;6.418;2023-03-09T05:53:34;132.23;;;25.92;;
36291;SDS011;22327;51.208;6.418;2023-03-09T05:56:00;139.57;;;27.83;;
36291;SDS011;22327;51.208;6.418;2023-03-09T05:58:26;127.15;;;27.05;;
36291;SDS011;22327;51.208;6.418;2023-03-09T06:00:52;147.60;;;29.60;;
36291;SDS011;22327;51.208;6.418;2023-03-09T06:03:18;121.38;;;27.85;;
36291;SDS011;22327;51.208;6.418;2023-03-09T06:05:44;146.52;;;28.92;;
36291;SDS011;22327;51.208;6.418;2023-03-09T06:08:10;134.82;;;27.58;;
36291;SDS011;22327;51.208;6.418;2023-03-09T06:10:36;144.43;;;28.00;;
36291;SDS011;22327;51.208;6.418;2023-03-09T06:13:02;136.55;;;27.17;;
36291;SDS011;22327;51.208;6.418;2023-03-09T06:15:28;135.35;;;25.65;;
36291;SDS011;22327;51.208;6.418;2023-03-09T06:17:53;148.18;;;26.15;;
36291;SDS011;22327;51.208;6.418;2023-03-09T06:20:19;125.13;;;24.88;;
36291;SDS011;22327;51.208;6.418;2023-03-09T06:22:45;138.30;;;26.17;;
36291;SDS011;22327;51.208;6.418;2023-03-09T06:25:10;187.25;;;30.65;;
36291;SDS011;22327;51.208;6.418;2023-03-09T06:27:36;138.23;;;28.35;;
36291;SDS011;22327;51.208;6.418;2023-03-09T06:30:02;135.55;;;28.10;;
36291;SDS011;22327;51.208;6.418;2023-03-09T06:32:31;141.57;;;26.52;;
36291;SDS011;22327;51.208;6.418;2023-03-09T06:34:57;163.23;;;28.75;;
36291;SDS011;22327;51.208;6.418;2023-03-09T06:37:23;170.90;;;29.23;;
36291;SDS011;22327;51.208;6.418;2023-03-09T06:39:49;158.13;;;29.15;;
36291;SDS011;22327;51.208;6.418;2023-03-09T06:42:14;165.43;;;29.92;;
36291;SDS011;22327;51.208;6.418;2023-03-09T06:44:40;165.90;;;29.33;;
36291;SDS011;22327;51.208;6.418;2023-03-09T06:47:07;140.68;;;25.75;;
36291;SDS011;22327;51.208;6.418;2023-03-09T06:49:33;128.98;;;27.45;;
36291;SDS011;22327;51.208;6.418;2023-03-09T06:51:59;149.27;;;26.48;;
36291;SDS011;22327;51.208;6.418;2023-03-09T06:54:24;161.25;;;27.85;;
36291;SDS011;22327;51.208;6.418;2023-03-09T06:56:50;122.93;;;26.77;;
36291;SDS011;22327;51.208;6.418;2023-03-09T06:59:16;127.65;;;26.25;;
36291;SDS011;22327;51.208;6.418;2023-03-09T07:01:42;124.00;;;28.60;;
36291;SDS011;22327;51.208;6.418;2023-03-09T07:04:07;109.75;;;26.92;;
36291;SDS011;22327;51.208;6.418;2023-03-09T07:06:33;154.15;;;28.00;;
36291;SDS011;22327;51.208;6.418;2023-03-09T07:08:58;130.40;;;27.00;;
36291;SDS011;22327;51.208;6.418;2023-03-09T07:11:24;97.72;;;24.00;;
36291;SDS011;22327;51.208;6.418;2023-03-09T07:13:49;113.97;;;25.52;;
36291;SDS011;22327;51.208;6.418;2023-03-09T07:16:15;124.72;;;26.35;;
36291;SDS011;22327;51.208;6.418;2023-03-09T07:18:40;108.28;;;26.02;;
36291;SDS011;22327;51.208;6.418;2023-03-09T07:21:06;111.35;;;25.75;;
36291;SDS011;22327;51.208;6.418;2023-03-09T07:23:33;104.00;;;25.35;;
36291;SDS011;22327;51.208;6.418;2023-03-09T07:26:02;91.85;;;24.88;;
36291;SDS011;22327;51.208;6.418;2023-03-09T07:28:28;92.93;;;25.92;;
36291;SDS011;22327;51.208;6.418;2023-03-09T07:30:55;92.63;;;23.33;;
36291;SDS011;22327;51.208;6.418;2023-03-09T07:33:20;88.40;;;24.95;;
36291;SDS011;22327;51.208;6.418;2023-03-09T07:35:46;95.80;;;24.33;;
36291;SDS011;22327;51.208;6.418;2023-03-09T07:38:12;91.03;;;22.75;;
36291;SDS011;22327;51.208;6.418;2023-03-09T07:40:37;88.57;;;23.88;;
36291;SDS011;22327;51.208;6.418;2023-03-09T07:43:03;90.68;;;24.02;;
36291;SDS011;22327;51.208;6.418;2023-03-09T07:45:29;84.93;;;21.98;;
36291;SDS011;22327;51.208;6.418;2023-03-09T07:47:54;83.40;;;24.17;;
36291;SDS011;22327;51.208;6.418;2023-03-09T07:50:20;86.38;;;24.95;;
36291;SDS011;22327;51.208;6.418;2023-03-09T07:52:46;86.15;;;23.52;;
36291;SDS011;22327;51.208;6.418;2023-03-09T07:55:12;85.30;;;23.65;;
36291;SDS011;22327;51.208;6.418;2023-03-09T07:57:39;83.97;;;24.10;;
36291;SDS011;22327;51.208;6.418;2023-03-09T08:00:06;77.32;;;22.27;;
36291;SDS011;22327;51.208;6.418;2023-03-09T08:02:37;82.97;;;23.60;;
36291;SDS011;22327;51.208;6.418;2023-03-09T08:05:06;82.05;;;24.30;;
36291;SDS011;22327;51.208;6.418;2023-03-09T08:07:33;70.55;;;23.08;;
36291;SDS011;22327;51.208;6.418;2023-03-09T08:09:59;83.18;;;23.30;;
36291;SDS011;22327;51.208;6.418;2023-03-09T08:12:25;84.82;;;23.63;;
36291;SDS011;22327;51.208;6.418;2023-03-09T08:14:50;76.40;;;21.55;;
36291;SDS011;22327;51.208;6.418;2023-03-09T08:17:16;73.90;;;23.23;;
36291;SDS011;22327;51.208;6.418;2023-03-09T08:19:41;68.00;;;23.02;;
36291;SDS011;22327;51.208;6.418;2023-03-09T08:22:07;78.68;;;23.17;;
36291;SDS011;22327;51.208;6.418;2023-03-09T08:24:32;71.78;;;21.55;;
36291;SDS011;22327;51.208;6.418;2023-03-09T08:26:58;73.40;;;23.02;;
36291;SDS011;22327;51.208;6.418;2023-03-09T08:29:23;70.85;;;22.20;;
36291;SDS011;22327;51.208;6.418;2023-03-09T08:31:49;72.90;;;22.75;;
36291;SDS011;22327;51.208;6.418;2023-03-09T08:34:17;65.28;;;21.25;;
36291;SDS011;22327;51.208;6.418;2023-03-09T08:36:43;60.03;;;20.75;;
36291;SDS011;22327;51.208;6.418;2023-03-09T08:39:09;60.80;;;21.05;;
36291;SDS011;22327;51.208;6.418;2023-03-09T08:41:34;58.63;;;21.88;;
36291;SDS011;22327;51.208;6.418;2023-03-09T08:44:00;54.78;;;20.15;;
36291;SDS011;22327;51.208;6.418;2023-03-09T08:46:25;53.58;;;19.70;;
36291;SDS011;22327;51.208;6.418;2023-03-09T08:48:51;56.88;;;20.70;;
36291;SDS011;22327;51.208;6.418;2023-03-09T08:51:17;55.85;;;21.10;;
36291;SDS011;22327;51.208;6.418;2023-03-09T08:53:42;54.97;;;19.70;;
36291;SDS011;22327;51.208;6.418;2023-03-09T08:56:09;52.83;;;19.88;;
36291;SDS011;22327;51.208;6.418;2023-03-09T08:58:36;57.05;;;20.25;;
36291;SDS011;22327;51.208;6.418;2023-03-09T09:01:06;48.88;;;19.95;;
36291;SDS011;22327;51.208;6.418;2023-03-09T09:03:35;46.35;;;20.13;;
36291;SDS011;22327;51.208;6.418;2023-03-09T09:06:04;54.30;;;21.83;;
36291;SDS011;22327;51.208;6.418;2023-03-09T09:08:31;56.75;;;22.08;;
36291;SDS011;22327;51.208;6.418;2023-03-09T09:10:57;59.85;;;23.67;;
36291;SDS011;22327;51.208;6.418;2023-03-09T09:13:23;68.85;;;24.60;;
36291;SDS011;22327;51.208;6.418;2023-03-09T09:15:55;70.00;;;24.95;;
36291;SDS011;22327;51.208;6.418;2023-03-09T09:18:20;69.40;;;25.75;;
36291;SDS011;22327;51.208;6.418;2023-03-09T09:20:46;68.57;;;25.63;;
36291;SDS011;22327;51.208;6.418;2023-03-09T09:23:13;65.65;;;24.77;;
36291;SDS011;22327;51.208;6.418;2023-03-09T09:25:38;69.88;;;26.95;;
36291;SDS011;22327;51.208;6.418;2023-03-09T09:28:04;58.78;;;22.92;;
36291;SDS011;22327;51.208;6.418;2023-03-09T09:30:30;57.33;;;23.73;;
36291;SDS011;22327;51.208;6.418;2023-03-09T09:32:57;55.83;;;23.40;;
36291;SDS011;22327;51.208;6.418;2023-03-09T09:35:23;59.53;;;24.15;;
36291;SDS011;22327;51.208;6.418;2023-03-09T09:37:49;53.67;;;25.15;;
36291;SDS011;22327;51.208;6.418;2023-03-09T09:40:17;47.97;;;21.70;;
36291;SDS011;22327;51.208;6.418;2023-03-09T09:42:43;45.28;;;21.92;;
36291;SDS011;22327;51.208;6.418;2023-03-09T09:45:25;45.20;;;21.05;;
36291;SDS011;22327;51.208;6.418;2023-03-09T09:47:55;38.40;;;20.38;;
36291;SDS011;22327;51.208;6.418;2023-03-09T09:50:26;42.17;;;20.63;;
36291;SDS011;22327;51.208;6.418;2023-03-09T09:53:05;35.90;;;18.85;;
36291;SDS011;22327;51.208;6.418;2023-03-09T09:55:52;36.22;;;19.58;;
36291;SDS011;22327;51.208;6.418;2023-03-09T09:58:25;38.72;;;19.45;;
36291;SDS011;22327;51.208;6.418;2023-03-09T10:01:02;39.23;;;18.83;;
36291;SDS011;22327;51.208;6.418;2023-03-09T10:03:37;36.25;;;18.75;;
36291;SDS011;22327;51.208;6.418;2023-03-09T10:06:18;39.13;;;19.98;;
36291;SDS011;22327;51.208;6.418;2023-03-09T10:08:59;34.40;;;18.05;;
36291;SDS011;22327;51.208;6.418;2023-03-09T10:11:36;36.05;;;18.65;;
36291;SDS011;22327;51.208;6.418;2023-03-09T10:16:36;38.20;;;20.00;;
36291;SDS011;22327;51.208;6.418;2023-03-09T10:19:14;39.05;;;20.38;;
36291;SDS011;22327;51.208;6.418;2023-03-09T10:21:46;36.50;;;19.13;;
36291;SDS011;22327;51.208;6.418;2023-03-09T10:24:23;36.83;;;20.45;;
36291;SDS011;22327;51.208;6.418;2023-03-09T10:27:01;38.55;;;20.58;;
36291;SDS011;22327;51.208;6.418;2023-03-09T10:29:41;39.17;;;20.35;;
36291;SDS011;22327;51.208;6.418;2023-03-09T10:32:30;36.90;;;19.85;;
36291;SDS011;22327;51.208;6.418;2023-03-09T10:38:18;36.58;;;19.75;;
36291;SDS011;22327;51.208;6.418;2023-03-09T10:40:46;37.10;;;19.85;;
36291;SDS011;22327;51.208;6.418;2023-03-09T10:46:04;34.80;;;19.33;;
36291;SDS011;22327;51.208;6.418;2023-03-09T10:48:39;36.47;;;18.75;;
36291;SDS011;22327;51.208;6.418;2023-03-09T10:51:05;34.35;;;18.90;;
36291;SDS011;22327;51.208;6.418;2023-03-09T10:53:45;34.05;;;18.67;;
36291;SDS011;22327;51.208;6.418;2023-03-09T10:56:19;31.00;;;17.25;;
36291;SDS011;22327;51.208;6.418;2023-03-09T10:58:47;35.88;;;18.70;;
36291;SDS011;22327;51.208;6.418;2023-03-09T11:01:34;36.40;;;19.10;;
36291;SDS011;22327;51.208;6.418;2023-03-09T11:04:00;34.42;;;17.65;;
36291;SDS011;22327;51.208;6.418;2023-03-09T11:06:36;31.35;;;18.70;;
36291;SDS011;22327;51.208;6.418;2023-03-09T11:09:12;33.00;;;18.30;;
36291;SDS011;22327;51.208;6.418;2023-03-09T11:11:39;37.47;;;18.73;;
36291;SDS011;22327;51.208;6.418;2023-03-09T11:14:20;31.90;;;17.67;;
36291;SDS011;22327;51.208;6.418;2023-03-09T11:16:50;33.55;;;18.73;;
36291;SDS011;22327;51.208;6.418;2023-03-09T11:19:17;33.33;;;17.75;;
36291;SDS011;22327;51.208;6.418;2023-03-09T11:24:21;35.47;;;18.27;;
36291;SDS011;22327;51.208;6.418;2023-03-09T11:26:55;33.10;;;18.10;;
36291;SDS011;22327;51.208;6.418;2023-03-09T11:32:34;32.72;;;18.13;;
36291;SDS011;22327;51.208;6.418;2023-03-09T11:34:59;33.88;;;18.15;;
36291;SDS011;22327;51.208;6.418;2023-03-09T11:37:34;36.38;;;19.27;;
36291;SDS011;22327;51.208;6.418;2023-03-09T11:40:16;32.65;;;18.40;;
36291;SDS011;22327;51.208;6.418;2023-03-09T11:42:45;35.33;;;18.90;;
36291;SDS011;22327;51.208;6.418;2023-03-09T11:45:32;35.85;;;17.90;;
36291;SDS011;22327;51.208;6.418;2023-03-09T11:48:02;31.70;;;16.35;;
36291;SDS011;22327;51.208;6.418;2023-03-09T11:50:35;34.60;;;18.23;;
36291;SDS011;22327;51.208;6.418;2023-03-09T11:53:09;31.25;;;16.63;;
36291;SDS011;22327;51.208;6.418;2023-03-09T11:55:48;31.67;;;16.58;;
36291;SDS011;22327;51.208;6.418;2023-03-09T11:58:28;34.85;;;17.05;;
36291;SDS011;22327;51.208;6.418;2023-03-09T12:03:54;33.30;;;17.13;;
36291;SDS011;22327;51.208;6.418;2023-03-09T12:09:02;30.05;;;16.88;;
36291;SDS011;22327;51.208;6.418;2023-03-09T12:11:50;29.38;;;15.63;;
36291;SDS011;22327;51.208;6.418;2023-03-09T12:14:28;30.77;;;16.25;;
36291;SDS011;22327;51.208;6.418;2023-03-09T12:17:14;31.63;;;16.15;;
36291;SDS011;22327;51.208;6.418;2023-03-09T12:19:44;34.78;;;16.60;;
36291;SDS011;22327;51.208;6.418;2023-03-09T12:22:14;31.42;;;15.48;;
36291;SDS011;22327;51.208;6.418;2023-03-09T12:24:44;41.10;;;18.60;;
36291;SDS011;22327;51.208;6.418;2023-03-09T12:27:20;34.20;;;17.63;;
36291;SDS011;22327;51.208;6.418;2023-03-09T12:32:43;36.22;;;18.52;;
36291;SDS011;22327;51.208;6.418;2023-03-09T12:35:14;37.65;;;17.50;;
36291;SDS011;22327;51.208;6.418;2023-03-09T12:38:19;34.85;;;18.48;;
36291;SDS011;22327;51.208;6.418;2023-03-09T12:40:47;39.85;;;19.75;;
36291;SDS011;22327;51.208;6.418;2023-03-09T12:45:39;41.20;;;21.63;;
36291;SDS011;22327;51.208;6.418;2023-03-09T13:00:59;37.60;;;16.58;;
36291;SDS011;22327;51.208;6.418;2023-03-09T13:06:26;31.63;;;15.68;;
36291;SDS011;22327;51.208;6.418;2023-03-09T13:09:04;31.80;;;15.68;;
36291;SDS011;22327;51.208;6.418;2023-03-09T13:24:34;31.50;;;16.13;;
36291;SDS011;22327;51.208;6.418;2023-03-09T13:27:24;28.30;;;14.73;;
36291;SDS011;22327;51.208;6.418;2023-03-09T13:29:53;32.35;;;14.73;;
36291;SDS011;22327;51.208;6.418;2023-03-09T13:32:32;30.48;;;15.50;;
36291;SDS011;22327;51.208;6.418;2023-03-09T13:35:00;31.65;;;15.05;;
36291;SDS011;22327;51.208;6.418;2023-03-09T13:37:29;31.25;;;16.00;;
36291;SDS011;22327;51.208;6.418;2023-03-09T13:39:58;29.67;;;14.88;;
36291;SDS011;22327;51.208;6.418;2023-03-09T13:42:29;30.63;;;14.93;;
36291;SDS011;22327;51.208;6.418;2023-03-09T13:44:57;31.42;;;15.63;;
36291;SDS011;22327;51.208;6.418;2023-03-09T13:47:24;31.25;;;16.05;;
36291;SDS011;22327;51.208;6.418;2023-03-09T13:49:53;31.55;;;15.35;;
36291;SDS011;22327;51.208;6.418;2023-03-09T13:52:20;32.65;;;16.50;;
36291;SDS011;22327;51.208;6.418;2023-03-09T13:54:53;32.78;;;15.70;;
36291;SDS011;22327;51.208;6.418;2023-03-09T13:57:33;31.83;;;14.93;;
36291;SDS011;22327;51.208;6.418;2023-03-09T14:00:03;32.58;;;15.05;;
36291;SDS011;22327;51.208;6.418;2023-03-09T14:02:30;30.92;;;14.77;;
36291;SDS011;22327;51.208;6.418;2023-03-09T14:07:27;31.55;;;15.32;;
36291;SDS011;22327;51.208;6.418;2023-03-09T14:09:58;30.85;;;15.88;;
36291;SDS011;22327;51.208;6.418;2023-03-09T14:12:31;35.63;;;16.17;;
36291;SDS011;22327;51.208;6.418;2023-03-09T14:14:59;35.92;;;15.55;;
36291;SDS011;22327;51.208;6.418;2023-03-09T14:17:28;34.90;;;15.13;;
36291;SDS011;22327;51.208;6.418;2023-03-09T14:19:54;27.35;;;13.45;;
36291;SDS011;22327;51.208;6.418;2023-03-09T14:22:21;32.95;;;16.40;;
36291;SDS011;22327;51.208;6.418;2023-03-09T14:24:52;32.35;;;15.95;;
36291;SDS011;22327;51.208;6.418;2023-03-09T14:27:38;33.67;;;17.00;;
36291;SDS011;22327;51.208;6.418;2023-03-09T14:32:58;37.92;;;16.17;;
36291;SDS011;22327;51.208;6.418;2023-03-09T14:35:35;35.17;;;16.40;;
36291;SDS011;22327;51.208;6.418;2023-03-09T14:38:02;39.28;;;17.20;;
36291;SDS011;22327;51.208;6.418;2023-03-09T14:40:46;35.15;;;16.10;;
36291;SDS011;22327;51.208;6.418;2023-03-09T14:43:18;27.38;;;14.65;;
36291;SDS011;22327;51.208;6.418;2023-03-09T14:45:51;28.00;;;16.05;;
36291;SDS011;22327;51.208;6.418;2023-03-09T14:48:17;28.02;;;14.23;;
36291;SDS011;22327;51.208;6.418;2023-03-09T14:50:43;28.88;;;14.10;;
36291;SDS011;22327;51.208;6.418;2023-03-09T14:53:11;24.27;;;14.27;;
36291;SDS011;22327;51.208;6.418;2023-03-09T14:55:39;27.75;;;14.55;;
36291;SDS011;22327;51.208;6.418;2023-03-09T14:58:08;26.15;;;14.45;;
36291;SDS011;22327;51.208;6.418;2023-03-09T15:00:35;26.50;;;14.98;;
36291;SDS011;22327;51.208;6.418;2023-03-09T15:03:01;27.58;;;15.85;;
36291;SDS011;22327;51.208;6.418;2023-03-09T15:05:27;24.85;;;14.70;;
36291;SDS011;22327;51.208;6.418;2023-03-09T15:07:53;27.45;;;15.27;;
36291;SDS011;22327;51.208;6.418;2023-03-09T15:10:18;26.67;;;15.40;;
36291;SDS011;22327;51.208;6.418;2023-03-09T15:12:44;28.80;;;15.20;;
36291;SDS011;22327;51.208;6.418;2023-03-09T15:15:14;32.85;;;17.10;;
36291;SDS011;22327;51.208;6.418;2023-03-09T15:17:40;30.45;;;16.52;;
36291;SDS011;22327;51.208;6.418;2023-03-09T15:20:05;27.60;;;15.88;;
36291;SDS011;22327;51.208;6.418;2023-03-09T15:22:33;30.05;;;16.45;;
36291;SDS011;22327;51.208;6.418;2023-03-09T15:24:58;31.88;;;17.27;;
36291;SDS011;22327;51.208;6.418;2023-03-09T15:27:24;36.00;;;17.52;;
36291;SDS011;22327;51.208;6.418;2023-03-09T15:29:49;33.50;;;17.08;;
36291;SDS011;22327;51.208;6.418;2023-03-09T15:32:15;37.47;;;18.00;;